map of LIN home
LIN - Airport
Location
City:  Milan, Lombardy, Italy
Near (Alt.):Milano
Name:Linate
ICAO:LIML
IATA:LIN

Details
Type:Airport (Aerodrome, Airfield)
Use:Public/Civil, International (customs port of entry)
Latitude:4526'42"N (45.445103)
Longitude:916'36"E (9.276739)
Datum:WGS 1984
Elevation:353 ft (108 m)
Variation:2.50E (WMM2015 magnetic declination)
0.12 annual change
Runways:2
Longest:8005 × 197 ft (2440 × 60 m), paved

Time
Time Zone:UTC+1 (DST+2)
Local Time:

Weather
METAR:LIML 150550Z 00000KT 8000 FEW035 SCT090 02/01 Q0999 NOSIG
TAF:LIML 150500Z 1506/1606 VRB05KT 2000 BR SCT050
TEMPO 1506/1508 0600 BCFG
BECMG 1508/1510 6000
TEMPO 1600/1606 1500 BCFG

Related Locations
Nearby:
Farthest:CHT: 12135 mi / 19529 km
Waitangi [Tuuta], CIT, NZ

Find:

   beyond  
but within

Other Information
Maps:
NOTAMs:
Links:
Sources:

  
flag of Italy
flag of Lombardy
flag of Milan
  

Sectional Chart

Flight Planning
at skyvector.com

Satellite Image

Google Maps Satellite view

 

Copyright © 2004-2017 Karl L. Swartz. All rights reserved.
The Great Circle Mapper name and logo are trademarks of the Great Circle Mapper.
All other trademarks mentioned herein belong to their respective owners.
Please see credits for attibutions and further copyright information.

  Follow gcmap on Facebook Follow gcmap on Twitter Follow gcmap on Google+ GCmap on LinkedIn

hCard Microformat

Geo Microformat